sensor_id;sensor_type;location;lat;lon;timestamp;pressure;altitude;pressure_sealevel;temperature;humidity
5283;BME280;15376;48.540;9.268;2022-12-19T00:01:05;98449.34;;;-3.37;100.00
5283;BME280;15376;48.540;9.268;2022-12-19T00:03:30;98451.81;;;-3.34;100.00
5283;BME280;15376;48.540;9.268;2022-12-19T00:06:00;98448.22;;;-3.31;100.00
5283;BME280;15376;48.540;9.268;2022-12-19T00:08:25;98434.59;;;-3.37;100.00
5283;BME280;15376;48.540;9.268;2022-12-19T00:10:56;98462.88;;;-3.30;100.00
5283;BME280;15376;48.540;9.268;2022-12-19T00:13:22;98461.13;;;-3.30;100.00
5283;BME280;15376;48.540;9.268;2022-12-19T00:15:48;98453.34;;;-3.30;100.00
5283;BME280;15376;48.540;9.268;2022-12-19T00:18:13;98466.03;;;-3.24;100.00
5283;BME280;15376;48.540;9.268;2022-12-19T00:20:38;98469.41;;;-3.22;100.00
5283;BME280;15376;48.540;9.268;2022-12-19T00:23:04;98490.78;;;-3.17;100.00
5283;BME280;15376;48.540;9.268;2022-12-19T00:25:29;98457.47;;;-3.26;100.00
5283;BME280;15376;48.540;9.268;2022-12-19T00:27:54;98450.31;;;-3.21;100.00
5283;BME280;15376;48.540;9.268;2022-12-19T00:30:20;98451.75;;;-3.15;100.00
5283;BME280;15376;48.540;9.268;2022-12-19T00:32:45;98444.63;;;-3.12;100.00
5283;BME280;15376;48.540;9.268;2022-12-19T00:35:12;98451.59;;;-3.12;100.00
5283;BME280;15376;48.540;9.268;2022-12-19T00:37:37;98464.13;;;-3.03;100.00
5283;BME280;15376;48.540;9.268;2022-12-19T00:40:03;98455.44;;;-3.02;100.00
5283;BME280;15376;48.540;9.268;2022-12-19T00:42:28;98457.03;;;-2.99;100.00
5283;BME280;15376;48.540;9.268;2022-12-19T00:44:54;98446.50;;;-2.96;100.00
5283;BME280;15376;48.540;9.268;2022-12-19T00:47:19;98425.94;;;-3.01;100.00
5283;BME280;15376;48.540;9.268;2022-12-19T00:49:44;98444.03;;;-2.99;100.00
5283;BME280;15376;48.540;9.268;2022-12-19T00:52:10;98429.69;;;-3.07;100.00
5283;BME280;15376;48.540;9.268;2022-12-19T00:54:35;98421.19;;;-2.93;100.00
5283;BME280;15376;48.540;9.268;2022-12-19T00:57:00;98424.66;;;-2.92;100.00
5283;BME280;15376;48.540;9.268;2022-12-19T00:59:26;98423.56;;;-2.88;100.00
5283;BME280;15376;48.540;9.268;2022-12-19T01:01:51;98430.28;;;-3.02;100.00
5283;BME280;15376;48.540;9.268;2022-12-19T01:04:16;98450.94;;;-2.98;100.00
5283;BME280;15376;48.540;9.268;2022-12-19T01:06:42;98424.94;;;-2.98;100.00
5283;BME280;15376;48.540;9.268;2022-12-19T01:09:09;98428.31;;;-2.96;100.00
5283;BME280;15376;48.540;9.268;2022-12-19T01:11:34;98411.25;;;-3.02;100.00
5283;BME280;15376;48.540;9.268;2022-12-19T01:14:18;98453.38;;;-2.95;100.00
5283;BME280;15376;48.540;9.268;2022-12-19T01:16:44;98456.81;;;-2.95;100.00
5283;BME280;15376;48.540;9.268;2022-12-19T01:19:09;98420.81;;;-3.03;100.00
5283;BME280;15376;48.540;9.268;2022-12-19T01:21:34;98434.13;;;-2.91;100.00
5283;BME280;15376;48.540;9.268;2022-12-19T01:24:01;98434.88;;;-2.89;100.00
5283;BME280;15376;48.540;9.268;2022-12-19T01:26:27;98425.56;;;-2.93;100.00
5283;BME280;15376;48.540;9.268;2022-12-19T01:28:53;98446.81;;;-2.85;100.00
5283;BME280;15376;48.540;9.268;2022-12-19T01:31:18;98439.16;;;-2.88;100.00
5283;BME280;15376;48.540;9.268;2022-12-19T01:33:43;98432.97;;;-2.86;100.00
5283;BME280;15376;48.540;9.268;2022-12-19T01:36:09;98429.25;;;-2.80;100.00
5283;BME280;15376;48.540;9.268;2022-12-19T01:38:35;98438.63;;;-2.78;100.00
5283;BME280;15376;48.540;9.268;2022-12-19T01:41:01;98421.25;;;-2.77;100.00
5283;BME280;15376;48.540;9.268;2022-12-19T01:43:32;98416.59;;;-2.71;100.00
5283;BME280;15376;48.540;9.268;2022-12-19T01:46:01;98404.44;;;-2.70;100.00
5283;BME280;15376;48.540;9.268;2022-12-19T01:50:59;98403.53;;;-2.69;100.00
5283;BME280;15376;48.540;9.268;2022-12-19T01:53:29;98389.16;;;-2.76;100.00
5283;BME280;15376;48.540;9.268;2022-12-19T01:55:55;98397.72;;;-2.74;100.00
5283;BME280;15376;48.540;9.268;2022-12-19T01:58:21;98395.56;;;-2.66;100.00
5283;BME280;15376;48.540;9.268;2022-12-19T02:00:47;98390.06;;;-2.60;100.00
5283;BME280;15376;48.540;9.268;2022-12-19T02:03:23;98382.56;;;-2.49;100.00
5283;BME280;15376;48.540;9.268;2022-12-19T02:05:51;98374.38;;;-2.58;100.00
5283;BME280;15376;48.540;9.268;2022-12-19T02:08:17;98369.56;;;-2.66;100.00
5283;BME280;15376;48.540;9.268;2022-12-19T02:10:42;98389.44;;;-2.48;100.00
5283;BME280;15376;48.540;9.268;2022-12-19T02:13:08;98378.13;;;-2.47;100.00
5283;BME280;15376;48.540;9.268;2022-12-19T02:15:43;98356.38;;;-2.46;100.00
5283;BME280;15376;48.540;9.268;2022-12-19T02:18:25;98355.88;;;-2.37;100.00
5283;BME280;15376;48.540;9.268;2022-12-19T02:26:55;98363.47;;;-2.16;100.00
5283;BME280;15376;48.540;9.268;2022-12-19T02:32:43;98348.88;;;-2.03;100.00
5283;BME280;15376;48.540;9.268;2022-12-19T02:37:49;98349.06;;;-2.06;100.00
5283;BME280;15376;48.540;9.268;2022-12-19T02:40:27;98347.97;;;-2.02;100.00
5283;BME280;15376;48.540;9.268;2022-12-19T02:42:59;98360.38;;;-2.07;100.00
5283;BME280;15376;48.540;9.268;2022-12-19T02:45:28;98374.81;;;-2.02;100.00
5283;BME280;15376;48.540;9.268;2022-12-19T02:47:57;98371.19;;;-1.99;100.00
5283;BME280;15376;48.540;9.268;2022-12-19T02:50:24;98367.94;;;-2.03;100.00
5283;BME280;15376;48.540;9.268;2022-12-19T02:52:49;98362.44;;;-1.98;100.00
5283;BME280;15376;48.540;9.268;2022-12-19T02:55:19;98360.28;;;-1.90;100.00
5283;BME280;15376;48.540;9.268;2022-12-19T03:00:53;98359.03;;;-1.83;100.00
5283;BME280;15376;48.540;9.268;2022-12-19T03:03:28;98370.88;;;-1.77;100.00
5283;BME280;15376;48.540;9.268;2022-12-19T03:06:10;98362.31;;;-1.79;100.00
5283;BME280;15376;48.540;9.268;2022-12-19T03:11:23;98361.28;;;-1.77;100.00
5283;BME280;15376;48.540;9.268;2022-12-19T03:13:55;98373.38;;;-1.76;100.00
5283;BME280;15376;48.540;9.268;2022-12-19T03:16:23;98389.09;;;-1.77;100.00
5283;BME280;15376;48.540;9.268;2022-12-19T03:18:50;98392.69;;;-1.80;100.00
5283;BME280;15376;48.540;9.268;2022-12-19T03:21:41;98380.59;;;-1.81;100.00
5283;BME280;15376;48.540;9.268;2022-12-19T03:24:09;98374.31;;;-1.77;100.00
5283;BME280;15376;48.540;9.268;2022-12-19T03:29:15;98380.94;;;-1.71;100.00
5283;BME280;15376;48.540;9.268;2022-12-19T03:31:44;98382.63;;;-1.70;100.00
5283;BME280;15376;48.540;9.268;2022-12-19T03:34:16;98383.03;;;-1.62;100.00
5283;BME280;15376;48.540;9.268;2022-12-19T03:36:45;98379.53;;;-1.61;100.00
5283;BME280;15376;48.540;9.268;2022-12-19T03:39:11;98390.31;;;-1.53;100.00
5283;BME280;15376;48.540;9.268;2022-12-19T03:41:41;98403.44;;;-1.54;100.00
5283;BME280;15376;48.540;9.268;2022-12-19T03:44:30;98394.69;;;-1.53;100.00
5283;BME280;15376;48.540;9.268;2022-12-19T03:47:14;98396.53;;;-1.55;100.00
5283;BME280;15376;48.540;9.268;2022-12-19T03:49:41;98402.75;;;-1.58;100.00
5283;BME280;15376;48.540;9.268;2022-12-19T03:52:20;98396.53;;;-1.55;100.00
5283;BME280;15376;48.540;9.268;2022-12-19T03:54:55;98417.88;;;-1.49;100.00
5283;BME280;15376;48.540;9.268;2022-12-19T03:57:31;98419.47;;;-1.46;100.00
5283;BME280;15376;48.540;9.268;2022-12-19T04:00:06;98421.91;;;-1.43;100.00
5283;BME280;15376;48.540;9.268;2022-12-19T04:02:35;98426.09;;;-1.41;100.00
5283;BME280;15376;48.540;9.268;2022-12-19T04:05:09;98422.59;;;-1.40;100.00
5283;BME280;15376;48.540;9.268;2022-12-19T04:07:36;98417.19;;;-1.37;100.00
5283;BME280;15376;48.540;9.268;2022-12-19T04:10:05;98419.72;;;-1.35;100.00
5283;BME280;15376;48.540;9.268;2022-12-19T04:12:35;98423.09;;;-1.33;100.00
5283;BME280;15376;48.540;9.268;2022-12-19T04:15:03;98416.03;;;-1.31;100.00
5283;BME280;15376;48.540;9.268;2022-12-19T04:17:34;98408.22;;;-1.31;100.00
5283;BME280;15376;48.540;9.268;2022-12-19T04:20:24;98419.03;;;-1.23;100.00
5283;BME280;15376;48.540;9.268;2022-12-19T04:25:26;98398.66;;;-1.16;100.00
5283;BME280;15376;48.540;9.268;2022-12-19T04:27:57;98407.63;;;-1.06;100.00
5283;BME280;15376;48.540;9.268;2022-12-19T04:30:24;98403.09;;;-1.03;100.00
5283;BME280;15376;48.540;9.268;2022-12-19T04:32:50;98408.97;;;-0.99;100.00
5283;BME280;15376;48.540;9.268;2022-12-19T04:35:15;98397.03;;;-1.03;100.00
5283;BME280;15376;48.540;9.268;2022-12-19T04:37:41;98400.22;;;-0.98;100.00
5283;BME280;15376;48.540;9.268;2022-12-19T04:40:07;98399.28;;;-0.97;100.00
5283;BME280;15376;48.540;9.268;2022-12-19T04:42:34;98400.72;;;-0.91;100.00
5283;BME280;15376;48.540;9.268;2022-12-19T04:44:59;98413.38;;;-0.85;100.00
5283;BME280;15376;48.540;9.268;2022-12-19T04:47:24;98404.47;;;-0.81;100.00
5283;BME280;15376;48.540;9.268;2022-12-19T04:49:50;98406.16;;;-0.80;100.00
5283;BME280;15376;48.540;9.268;2022-12-19T04:52:15;98394.88;;;-0.81;100.00
5283;BME280;15376;48.540;9.268;2022-12-19T04:54:40;98364.56;;;-0.97;100.00
5283;BME280;15376;48.540;9.268;2022-12-19T04:57:06;98398.69;;;-0.72;100.00
5283;BME280;15376;48.540;9.268;2022-12-19T04:59:31;98394.97;;;-0.68;100.00
5283;BME280;15376;48.540;9.268;2022-12-19T05:01:57;98392.44;;;-0.70;100.00
5283;BME280;15376;48.540;9.268;2022-12-19T05:04:22;98386.22;;;-0.67;100.00
5283;BME280;15376;48.540;9.268;2022-12-19T05:06:47;98380.63;;;-0.75;100.00
5283;BME280;15376;48.540;9.268;2022-12-19T05:09:13;98383.78;;;-0.70;100.00
5283;BME280;15376;48.540;9.268;2022-12-19T05:11:38;98385.19;;;-0.64;100.00
5283;BME280;15376;48.540;9.268;2022-12-19T05:14:04;98380.63;;;-0.61;100.00
5283;BME280;15376;48.540;9.268;2022-12-19T05:16:29;98377.84;;;-0.58;100.00
5283;BME280;15376;48.540;9.268;2022-12-19T05:18:54;98373.38;;;-0.56;100.00
5283;BME280;15376;48.540;9.268;2022-12-19T05:21:23;98374.22;;;-0.55;100.00
5283;BME280;15376;48.540;9.268;2022-12-19T05:23:49;98359.97;;;-0.64;100.00
5283;BME280;15376;48.540;9.268;2022-12-19T05:26:15;98369.66;;;-0.52;100.00
5283;BME280;15376;48.540;9.268;2022-12-19T05:28:41;98352.34;;;-0.53;100.00
5283;BME280;15376;48.540;9.268;2022-12-19T05:31:10;98363.16;;;-0.45;100.00
5283;BME280;15376;48.540;9.268;2022-12-19T05:33:36;98356.06;;;-0.43;100.00
5283;BME280;15376;48.540;9.268;2022-12-19T05:36:02;98345.53;;;-0.41;100.00
5283;BME280;15376;48.540;9.268;2022-12-19T05:38:28;98353.06;;;-0.37;100.00
5283;BME280;15376;48.540;9.268;2022-12-19T05:40:53;98342.00;;;-0.40;100.00
5283;BME280;15376;48.540;9.268;2022-12-19T05:43:19;98352.03;;;-0.34;100.00
5283;BME280;15376;48.540;9.268;2022-12-19T05:45:44;98352.88;;;-0.34;100.00
5283;BME280;15376;48.540;9.268;2022-12-19T05:48:10;98345.88;;;-0.33;100.00
5283;BME280;15376;48.540;9.268;2022-12-19T05:50:35;98358.84;;;-0.31;100.00
5283;BME280;15376;48.540;9.268;2022-12-19T05:53:00;98360.53;;;-0.30;100.00
5283;BME280;15376;48.540;9.268;2022-12-19T05:55:26;98361.25;;;-0.28;100.00
5283;BME280;15376;48.540;9.268;2022-12-19T05:57:51;98354.38;;;-0.29;100.00
5283;BME280;15376;48.540;9.268;2022-12-19T06:00:16;98348.59;;;-0.35;100.00
5283;BME280;15376;48.540;9.268;2022-12-19T06:02:42;98364.06;;;-0.31;100.00
5283;BME280;15376;48.540;9.268;2022-12-19T06:05:07;98339.47;;;-0.42;100.00
5283;BME280;15376;48.540;9.268;2022-12-19T06:07:33;98354.00;;;-0.23;100.00
5283;BME280;15376;48.540;9.268;2022-12-19T06:09:58;98350.53;;;-0.24;100.00
5283;BME280;15376;48.540;9.268;2022-12-19T06:12:24;98361.53;;;-0.19;100.00
5283;BME280;15376;48.540;9.268;2022-12-19T06:14:49;98361.63;;;-0.20;100.00
5283;BME280;15376;48.540;9.268;2022-12-19T06:17:15;98361.63;;;-0.20;100.00
5283;BME280;15376;48.540;9.268;2022-12-19T06:19:40;98348.88;;;-0.25;100.00
5283;BME280;15376;48.540;9.268;2022-12-19T06:22:05;98349.81;;;-0.26;100.00
5283;BME280;15376;48.540;9.268;2022-12-19T06:24:31;98356.69;;;-0.25;100.00
5283;BME280;15376;48.540;9.268;2022-12-19T06:26:56;98355.13;;;-0.27;100.00
5283;BME280;15376;48.540;9.268;2022-12-19T06:29:21;98349.81;;;-0.26;100.00
5283;BME280;15376;48.540;9.268;2022-12-19T06:31:47;98349.16;;;-0.29;100.00
5283;BME280;15376;48.540;9.268;2022-12-19T06:34:12;98366.09;;;-0.22;100.00
5283;BME280;15376;48.540;9.268;2022-12-19T06:36:37;98361.91;;;-0.25;100.00
5283;BME280;15376;48.540;9.268;2022-12-19T06:39:06;98355.84;;;-0.25;100.00
5283;BME280;15376;48.540;9.268;2022-12-19T06:41:31;98359.97;;;-0.21;100.00
5283;BME280;15376;48.540;9.268;2022-12-19T06:44:16;98351.94;;;-0.18;100.00
5283;BME280;15376;48.540;9.268;2022-12-19T06:46:42;98359.59;;;-0.15;100.00
5283;BME280;15376;48.540;9.268;2022-12-19T06:49:09;98356.78;;;-0.12;100.00
5283;BME280;15376;48.540;9.268;2022-12-19T06:51:35;98349.69;;;-0.10;100.00
5283;BME280;15376;48.540;9.268;2022-12-19T06:54:00;98344.03;;;-0.17;100.00
5283;BME280;15376;48.540;9.268;2022-12-19T06:56:26;98347.19;;;-0.12;100.00
5283;BME280;15376;48.540;9.268;2022-12-19T06:58:52;98338.63;;;-0.14;100.00
5283;BME280;15376;48.540;9.268;2022-12-19T07:02:05;98344.28;;;-0.07;100.00
5283;BME280;15376;48.540;9.268;2022-12-19T07:04:04;98343.34;;;-0.06;100.00
5283;BME280;15376;48.540;9.268;2022-12-19T07:06:30;98353.06;;;-0.08;100.00
5283;BME280;15376;48.540;9.268;2022-12-19T07:08:56;98348.59;;;-0.06;100.00
5283;BME280;15376;48.540;9.268;2022-12-19T07:11:21;98353.53;;;-0.02;100.00
5283;BME280;15376;48.540;9.268;2022-12-19T07:13:47;98349.75;;;0.03;100.00
5283;BME280;15376;48.540;9.268;2022-12-19T07:16:12;98344.53;;;0.03;100.00
5283;BME280;15376;48.540;9.268;2022-12-19T07:18:38;98352.06;;;0.07;100.00
5283;BME280;15376;48.540;9.268;2022-12-19T07:21:05;98342.47;;;0.08;100.00
5283;BME280;15376;48.540;9.268;2022-12-19T07:23:32;98348.34;;;0.11;100.00
5283;BME280;15376;48.540;9.268;2022-12-19T07:25:58;98356.28;;;0.10;100.00
5283;BME280;15376;48.540;9.268;2022-12-19T07:28:24;98335.16;;;0.00;100.00
5283;BME280;15376;48.540;9.268;2022-12-19T07:30:50;98350.03;;;0.12;100.00
5283;BME280;15376;48.540;9.268;2022-12-19T07:33:15;98359.44;;;0.15;100.00
5283;BME280;15376;48.540;9.268;2022-12-19T07:35:40;98355.69;;;0.19;100.00
5283;BME280;15376;48.540;9.268;2022-12-19T07:38:06;98354.84;;;0.18;100.00
5283;BME280;15376;48.540;9.268;2022-12-19T07:40:32;98358.31;;;0.19;100.00
5283;BME280;15376;48.540;9.268;2022-12-19T07:42:59;98346.38;;;0.15;100.00
5283;BME280;15376;48.540;9.268;2022-12-19T07:45:25;98342.09;;;0.14;100.00
5283;BME280;15376;48.540;9.268;2022-12-19T07:47:50;98351.56;;;0.29;100.00
5283;BME280;15376;48.540;9.268;2022-12-19T07:50:16;98354.00;;;0.32;100.00
5283;BME280;15376;48.540;9.268;2022-12-19T07:52:42;98352.13;;;0.34;100.00
5283;BME280;15376;48.540;9.268;2022-12-19T07:55:08;98354.53;;;0.37;100.00
5283;BME280;15376;48.540;9.268;2022-12-19T07:57:33;98363.00;;;0.41;100.00
5283;BME280;15376;48.540;9.268;2022-12-19T07:59:58;98353.28;;;0.43;100.00
5283;BME280;15376;48.540;9.268;2022-12-19T08:02:24;98351.94;;;0.37;100.00
5283;BME280;15376;48.540;9.268;2022-12-19T08:04:49;98357.56;;;0.44;100.00
5283;BME280;15376;48.540;9.268;2022-12-19T08:07:15;98355.59;;;0.47;100.00
5283;BME280;15376;48.540;9.268;2022-12-19T08:09:40;98350.00;;;0.53;100.00
5283;BME280;15376;48.540;9.268;2022-12-19T08:12:06;98344.66;;;0.55;100.00
5283;BME280;15376;48.540;9.268;2022-12-19T08:14:31;98339.53;;;0.53;100.00
5283;BME280;15376;48.540;9.268;2022-12-19T08:16:57;98346.97;;;0.59;100.00
5283;BME280;15376;48.540;9.268;2022-12-19T08:19:22;98360.50;;;0.66;100.00
5283;BME280;15376;48.540;9.268;2022-12-19T08:21:47;98355.38;;;0.64;100.00
5283;BME280;15376;48.540;9.268;2022-12-19T08:24:13;98361.13;;;0.70;100.00
5283;BME280;15376;48.540;9.268;2022-12-19T08:26:38;98350.22;;;0.63;100.00
5283;BME280;15376;48.540;9.268;2022-12-19T08:29:03;98361.13;;;0.70;100.00
5283;BME280;15376;48.540;9.268;2022-12-19T08:31:29;98374.66;;;0.76;100.00
5283;BME280;15376;48.540;9.268;2022-12-19T08:33:55;98372.78;;;0.78;100.00
5283;BME280;15376;48.540;9.268;2022-12-19T08:36:24;98385.63;;;0.81;100.00
5283;BME280;15376;48.540;9.268;2022-12-19T08:38:49;98389.06;;;0.82;100.00
5283;BME280;15376;48.540;9.268;2022-12-19T08:41:15;98383.00;;;0.81;100.00
5283;BME280;15376;48.540;9.268;2022-12-19T08:43:41;98386.34;;;0.83;100.00
5283;BME280;15376;48.540;9.268;2022-12-19T08:46:07;98379.69;;;0.92;100.00
5283;BME280;15376;48.540;9.268;2022-12-19T08:48:34;98387.97;;;0.98;100.00
5283;BME280;15376;48.540;9.268;2022-12-19T08:51:05;98389.44;;;1.03;100.00
5283;BME280;15376;48.540;9.268;2022-12-19T08:53:32;98379.00;;;1.03;100.00
5283;BME280;15376;48.540;9.268;2022-12-19T08:56:04;98388.00;;;1.24;100.00
5283;BME280;15376;48.540;9.268;2022-12-19T08:58:33;98402.69;;;1.39;100.00
5283;BME280;15376;48.540;9.268;2022-12-19T09:01:03;98392.22;;;1.39;100.00
5283;BME280;15376;48.540;9.268;2022-12-19T09:03:30;98387.41;;;1.46;100.00
5283;BME280;15376;48.540;9.268;2022-12-19T09:05:59;98391.81;;;1.58;100.00
5283;BME280;15376;48.540;9.268;2022-12-19T09:08:25;98392.22;;;1.64;100.00
5283;BME280;15376;48.540;9.268;2022-12-19T09:10:57;98396.84;;;1.74;100.00
5283;BME280;15376;48.540;9.268;2022-12-19T09:13:22;98382.38;;;1.81;100.00
5283;BME280;15376;48.540;9.268;2022-12-19T09:15:48;98377.34;;;1.78;100.00
5283;BME280;15376;48.540;9.268;2022-12-19T09:18:13;98374.84;;;1.63;100.00
5283;BME280;15376;48.540;9.268;2022-12-19T09:20:38;98373.06;;;1.64;100.00
5283;BME280;15376;48.540;9.268;2022-12-19T09:23:04;98359.97;;;1.77;100.00
5283;BME280;15376;48.540;9.268;2022-12-19T09:25:29;98357.66;;;1.85;100.00
5283;BME280;15376;48.540;9.268;2022-12-19T09:27:54;98366.00;;;2.03;100.00
5283;BME280;15376;48.540;9.268;2022-12-19T09:30:20;98351.72;;;2.07;100.00
5283;BME280;15376;48.540;9.268;2022-12-19T09:32:45;98338.59;;;2.19;100.00
5283;BME280;15376;48.540;9.268;2022-12-19T09:35:11;98343.25;;;2.40;100.00
5283;BME280;15376;48.540;9.268;2022-12-19T09:37:36;98342.56;;;2.49;100.00
5283;BME280;15376;48.540;9.268;2022-12-19T09:40:02;98335.31;;;2.52;100.00
5283;BME280;15376;48.540;9.268;2022-12-19T09:45:14;98333.94;;;2.59;100.00
5283;BME280;15376;48.540;9.268;2022-12-19T09:47:46;98333.31;;;2.56;100.00
5283;BME280;15376;48.540;9.268;2022-12-19T09:50:29;98330.75;;;2.67;100.00
5283;BME280;15376;48.540;9.268;2022-12-19T09:53:02;98319.47;;;2.54;100.00
5283;BME280;15376;48.540;9.268;2022-12-19T09:55:33;98326.78;;;2.61;100.00
5283;BME280;15376;48.540;9.268;2022-12-19T10:00:33;98311.91;;;2.62;100.00
5283;BME280;15376;48.540;9.268;2022-12-19T10:03:04;98315.53;;;2.72;100.00
5283;BME280;15376;48.540;9.268;2022-12-19T10:05:40;98317.53;;;2.68;100.00
5283;BME280;15376;48.540;9.268;2022-12-19T10:15:57;98308.09;;;2.66;100.00
5283;BME280;15376;48.540;9.268;2022-12-19T10:18:50;98307.50;;;2.62;100.00
5283;BME280;15376;48.540;9.268;2022-12-19T10:21:40;98281.00;;;2.54;100.00
5283;BME280;15376;48.540;9.268;2022-12-19T10:27:00;98299.69;;;2.74;100.00
5283;BME280;15376;48.540;9.268;2022-12-19T10:29:54;98294.03;;;2.67;100.00
5283;BME280;15376;48.540;9.268;2022-12-19T10:32:40;98277.75;;;2.51;100.00
5283;BME280;15376;48.540;9.268;2022-12-19T10:35:18;98298.06;;;2.60;100.00
5283;BME280;15376;48.540;9.268;2022-12-19T10:37:49;98300.25;;;2.66;100.00
5283;BME280;15376;48.540;9.268;2022-12-19T10:40:32;98285.63;;;2.75;100.00
5283;BME280;15376;48.540;9.268;2022-12-19T10:46:12;98295.09;;;2.99;100.00
5283;BME280;15376;48.540;9.268;2022-12-19T10:48:39;98260.50;;;2.94;100.00
5283;BME280;15376;48.540;9.268;2022-12-19T10:51:11;98286.06;;;3.26;100.00
5283;BME280;15376;48.540;9.268;2022-12-19T10:53:37;98288.56;;;3.27;100.00
5283;BME280;15376;48.540;9.268;2022-12-19T10:56:21;98279.66;;;3.52;100.00
5283;BME280;15376;48.540;9.268;2022-12-19T10:58:50;98285.34;;;3.80;100.00
5283;BME280;15376;48.540;9.268;2022-12-19T11:01:32;98283.19;;;3.96;100.00
5283;BME280;15376;48.540;9.268;2022-12-19T11:04:38;98285.28;;;4.13;100.00
5283;BME280;15376;48.540;9.268;2022-12-19T11:09:30;98272.88;;;4.04;100.00
5283;BME280;15376;48.540;9.268;2022-12-19T11:14:37;98239.97;;;4.32;100.00
5283;BME280;15376;48.540;9.268;2022-12-19T11:17:03;98251.06;;;4.35;100.00
5283;BME280;15376;48.540;9.268;2022-12-19T11:22:04;98248.28;;;4.69;100.00
5283;BME280;15376;48.540;9.268;2022-12-19T11:24:37;98238.09;;;4.76;100.00
5283;BME280;15376;48.540;9.268;2022-12-19T11:27:32;98233.44;;;4.89;100.00
5283;BME280;15376;48.540;9.268;2022-12-19T11:30:06;98228.31;;;5.08;100.00
5283;BME280;15376;48.540;9.268;2022-12-19T11:32:40;98199.72;;;4.73;100.00
5283;BME280;15376;48.540;9.268;2022-12-19T11:35:44;98222.03;;;4.99;100.00
5283;BME280;15376;48.540;9.268;2022-12-19T11:38:11;98219.34;;;4.90;100.00
5283;BME280;15376;48.540;9.268;2022-12-19T11:40:45;98217.09;;;5.06;100.00
5283;BME280;15376;48.540;9.268;2022-12-19T11:43:15;98210.53;;;5.00;100.00
5283;BME280;15376;48.540;9.268;2022-12-19T11:45:59;98213.88;;;5.02;100.00
5283;BME280;15376;48.540;9.268;2022-12-19T11:48:42;98196.03;;;4.85;100.00
5283;BME280;15376;48.540;9.268;2022-12-19T11:54:01;98189.28;;;5.13;100.00
5283;BME280;15376;48.540;9.268;2022-12-19T11:56:30;98179.47;;;5.25;100.00
5283;BME280;15376;48.540;9.268;2022-12-19T11:58:59;98182.66;;;5.28;100.00
5283;BME280;15376;48.540;9.268;2022-12-19T12:06:47;98169.91;;;5.24;100.00
5283;BME280;15376;48.540;9.268;2022-12-19T12:09:29;98188.06;;;5.27;100.00
5283;BME280;15376;48.540;9.268;2022-12-19T12:12:08;98199.31;;;4.98;100.00
5283;BME280;15376;48.540;9.268;2022-12-19T12:14:53;98206.69;;;5.05;100.00
5283;BME280;15376;48.540;9.268;2022-12-19T12:20:31;98207.13;;;4.89;100.00
5283;BME280;15376;48.540;9.268;2022-12-19T12:28:04;98200.59;;;4.83;100.00
5283;BME280;15376;48.540;9.268;2022-12-19T12:33:26;98202.84;;;4.67;100.00
5283;BME280;15376;48.540;9.268;2022-12-19T12:35:58;98200.94;;;4.69;100.00
5283;BME280;15376;48.540;9.268;2022-12-19T12:38:48;98191.13;;;4.71;100.00
5283;BME280;15376;48.540;9.268;2022-12-19T12:44:11;98142.94;;;4.50;100.00
5283;BME280;15376;48.540;9.268;2022-12-19T12:46:47;98176.56;;;4.67;100.00
5283;BME280;15376;48.540;9.268;2022-12-19T12:51:47;98152.69;;;4.59;100.00
5283;BME280;15376;48.540;9.268;2022-12-19T12:54:13;98160.78;;;4.67;100.00
5283;BME280;15376;48.540;9.268;2022-12-19T12:56:41;98152.22;;;4.75;100.00
5283;BME280;15376;48.540;9.268;2022-12-19T12:59:36;98161.03;;;4.94;100.00
5283;BME280;15376;48.540;9.268;2022-12-19T13:02:15;98145.97;;;4.96;100.00
5283;BME280;15376;48.540;9.268;2022-12-19T13:04:55;98148.16;;;4.91;100.00
5283;BME280;15376;48.540;9.268;2022-12-19T13:07:28;98161.75;;;4.96;100.00
5283;BME280;15376;48.540;9.268;2022-12-19T13:10:06;98159.00;;;4.98;100.00
5283;BME280;15376;48.540;9.268;2022-12-19T13:12:58;98160.28;;;4.83;100.00
5283;BME280;15376;48.540;9.268;2022-12-19T13:23:03;98152.44;;;4.62;100.00
5283;BME280;15376;48.540;9.268;2022-12-19T13:36:49;98151.41;;;4.32;100.00
5283;BME280;15376;48.540;9.268;2022-12-19T13:39:33;98167.69;;;4.26;100.00
5283;BME280;15376;48.540;9.268;2022-12-19T13:42:24;98170.81;;;4.20;100.00
5283;BME280;15376;48.540;9.268;2022-12-19T13:45:22;98168.47;;;4.06;100.00
5283;BME280;15376;48.540;9.268;2022-12-19T13:47:49;98171.16;;;3.95;100.00
5283;BME280;15376;48.540;9.268;2022-12-19T13:50:39;98169.88;;;3.89;100.00
5283;BME280;15376;48.540;9.268;2022-12-19T13:53:14;98175.25;;;3.88;100.00
5283;BME280;15376;48.540;9.268;2022-12-19T13:55:40;98155.09;;;3.77;100.00
5283;BME280;15376;48.540;9.268;2022-12-19T13:58:06;98168.97;;;3.68;100.00
5283;BME280;15376;48.540;9.268;2022-12-19T14:00:41;98175.50;;;3.74;100.00
5283;BME280;15376;48.540;9.268;2022-12-19T14:03:14;98159.91;;;3.61;100.00
5283;BME280;15376;48.540;9.268;2022-12-19T14:05:41;98169.31;;;3.63;100.00
5283;BME280;15376;48.540;9.268;2022-12-19T14:08:07;98164.59;;;3.57;100.00
5283;BME280;15376;48.540;9.268;2022-12-19T14:10:46;98170.31;;;3.51;100.00
5283;BME280;15376;48.540;9.268;2022-12-19T14:13:17;98180.47;;;3.45;100.00
5283;BME280;15376;48.540;9.268;2022-12-19T14:16:03;98188.00;;;3.38;100.00
5283;BME280;15376;48.540;9.268;2022-12-19T14:18:31;98176.34;;;3.20;100.00
5283;BME280;15376;48.540;9.268;2022-12-19T14:21:18;98179.88;;;3.30;100.00
5283;BME280;15376;48.540;9.268;2022-12-19T14:23:46;98182.75;;;3.27;100.00
5283;BME280;15376;48.540;9.268;2022-12-19T14:26:27;98191.56;;;3.26;100.00
5283;BME280;15376;48.540;9.268;2022-12-19T14:29:13;98200.91;;;3.19;100.00
5283;BME280;15376;48.540;9.268;2022-12-19T14:31:41;98202.69;;;3.18;100.00
5283;BME280;15376;48.540;9.268;2022-12-19T14:34:14;98196.13;;;3.13;100.00
5283;BME280;15376;48.540;9.268;2022-12-19T14:36:47;98187.53;;;3.11;100.00
5283;BME280;15376;48.540;9.268;2022-12-19T14:39:16;98180.13;;;2.93;100.00
5283;BME280;15376;48.540;9.268;2022-12-19T14:41:48;98187.75;;;2.85;100.00
5283;BME280;15376;48.540;9.268;2022-12-19T14:47:20;98190.13;;;2.88;100.00
5283;BME280;15376;48.540;9.268;2022-12-19T14:49:48;98201.69;;;2.86;100.00
5283;BME280;15376;48.540;9.268;2022-12-19T14:55:26;98204.53;;;2.72;100.00
5283;BME280;15376;48.540;9.268;2022-12-19T14:57:52;98202.66;;;2.74;100.00
5283;BME280;15376;48.540;9.268;2022-12-19T15:00:22;98198.94;;;2.65;100.00